Terminal Aerodrome Forecast
Issued by NWS Cleveland, OH

Home | Current Version | Previous Version | Text Only | Print | Product List | Glossary On
Versions: 1 2 3 4 5 6 7 8 9 10 11 12 13 14
859
FTUS41 KCLE 190520
TAFMFD
TAF
KMFD 190520Z 1906/2006 21007KT P6SM SKC WS020/23035KT
     FM191200 23011KT P6SM SCT250
     FM192300 23005KT P6SM SKC=

USA.gov is the U.S. government's official web portal to all federal, state and local government web resources and services.